Estación Meteorológica Peña el Pijo (Robertgarden) [ 02/03/23 04:42:51 CET ]

Fecha Hora Presion(HPa) Temp (°C) Humedad % Rocio (°C) Viento ( m/s) Direccion Lluvia 1Hora(mm) Lluvia 24H(mm) LLuvia Total(mm)
2010-Jun-10 01:01:14 999.800 11.9 82 8.9         120.17
2010-Jun-10 02:01:13 999.200 12.1 80 8.8         120.17
2010-Jun-10 03:03:09 999.500 11.8 78 8.1         120.17
2010-Jun-10 04:01:21 999.600 10.8 77 6.9         120.17
2010-Jun-10 05:01:13 999.700 9.3 84 6.7         120.17
2010-Jun-10 06:01:18 999.800 9.9 79 6.4         120.17
2010-Jun-10 07:01:14 1000.300 9.9 77 6.0         120.17
2010-Jun-10 08:01:17 1001.000 12.3 71 7.2         120.17
2010-Jun-10 09:01:14 1001.600 14.9 63 7.9         120.17
2010-Jun-10 10:01:17 1002.400 15.3 56 6.5         120.17
2010-Jun-10 11:01:11 1002.800 15.8 50 5.4         120.17
2010-Jun-10 12:01:14 1003.100 18.1 42 4.9         120.17
2010-Jun-10 13:01:12 1003.200 20.4 36 4.7         120.17
2010-Jun-10 14:01:12 1003.500 20.6 35 4.5 2.2 SSW     120.17
2010-Jun-10 15:01:16 1003.800 20.6 37 5.3         120.17
2010-Jun-10 16:01:16 1003.900 21.0 35 4.8         120.17
2010-Jun-10 17:01:13 1004.000 20.4 35 4.3         120.17
2010-Jun-10 18:01:12 1004.000 20.1 34 3.6         120.17
2010-Jun-10 19:01:11 1003.700 19.0 36 3.5         120.17
2010-Jun-10 20:01:12 1004.000 18.6 38 3.9         120.17
2010-Jun-10 21:01:13 1004.500 16.3 45 4.3         120.17
2010-Jun-10 22:01:12 1004.900 14.4 53 4.9         120.17
2010-Jun-10 23:01:10 1005.500 12.6 62 5.5         120.17

Temperatura Máxima:21°    Temperatura Mínima:
Presión Máxima:1005.500 Hpa    Presión Mínima:999.200 Hpa


Volver